createdAt,value
2017-12-31T00:01:44.727Z,6.77
2017-12-31T00:04:13.726Z,6.20
2017-12-31T00:06:41.957Z,3.70
2017-12-31T00:09:10.402Z,6.33
2017-12-31T00:11:39.097Z,5.57
2017-12-31T00:14:08.412Z,2.83
2017-12-31T00:16:37.337Z,2.07
2017-12-31T00:19:06.041Z,3.57
2017-12-31T00:21:35.494Z,4.10
2017-12-31T00:24:03.698Z,4.00
2017-12-31T00:26:31.861Z,1.63
2017-12-31T00:29:01.318Z,6.00
2017-12-31T00:31:29.798Z,2.60
2017-12-31T00:33:58.738Z,7.10
2017-12-31T00:36:27.003Z,5.37
2017-12-31T00:38:56.782Z,8.70
2017-12-31T00:41:25.654Z,4.07
2017-12-31T00:43:54.999Z,2.00
2017-12-31T00:46:23.608Z,5.77
2017-12-31T00:48:52.791Z,3.23
2017-12-31T00:51:21.874Z,1.43
2017-12-31T00:53:50.525Z,3.63
2017-12-31T00:56:18.867Z,3.63
2017-12-31T00:58:47.582Z,13.43
2017-12-31T01:01:16.765Z,3.50
2017-12-31T01:03:45.216Z,1.47
2017-12-31T01:06:14.921Z,3.33
2017-12-31T01:08:44.214Z,2.80
2017-12-31T01:11:14.625Z,2.87
2017-12-31T01:13:43.232Z,3.40
2017-12-31T01:16:12.530Z,5.57
2017-12-31T01:18:40.610Z,2.80
2017-12-31T01:21:09.593Z,4.07
2017-12-31T01:23:38.531Z,3.47
2017-12-31T01:26:06.759Z,3.67
2017-12-31T01:28:35.021Z,5.70
2017-12-31T01:31:04.468Z,3.47
2017-12-31T01:33:33.452Z,7.20
2017-12-31T01:36:02.481Z,4.83
2017-12-31T01:38:31.288Z,7.90
2017-12-31T01:41:00.270Z,5.63
2017-12-31T01:43:29.086Z,4.30
2017-12-31T01:45:57.900Z,5.80
2017-12-31T01:48:27.740Z,5.83
2017-12-31T01:50:56.912Z,3.47
2017-12-31T01:53:25.605Z,6.20
2017-12-31T01:55:54.656Z,5.00
2017-12-31T01:58:23.614Z,6.57
2017-12-31T02:00:52.826Z,4.03
2017-12-31T02:03:23.555Z,5.23
2017-12-31T02:05:51.644Z,7.40
2017-12-31T02:08:21.052Z,2.20
2017-12-31T02:10:49.796Z,3.93
2017-12-31T02:13:18.725Z,13.03
2017-12-31T02:15:47.476Z,3.43
2017-12-31T02:18:16.097Z,3.50
2017-12-31T02:20:45.736Z,4.00
2017-12-31T02:23:15.495Z,9.07
2017-12-31T02:25:44.082Z,8.43
2017-12-31T02:28:13.382Z,3.27
2017-12-31T02:30:42.121Z,3.17
2017-12-31T02:33:11.353Z,3.27
2017-12-31T02:35:40.070Z,4.67
2017-12-31T02:38:08.971Z,5.43
2017-12-31T02:40:38.014Z,4.87
2017-12-31T02:43:06.786Z,6.43
2017-12-31T02:45:34.980Z,5.40
2017-12-31T02:48:03.733Z,5.23
2017-12-31T02:50:32.897Z,3.23
2017-12-31T02:53:01.453Z,3.43
2017-12-31T02:55:29.828Z,5.60
2017-12-31T02:57:58.509Z,2.97
2017-12-31T03:00:26.681Z,3.20
2017-12-31T03:02:55.721Z,3.57
2017-12-31T03:05:23.770Z,4.27
2017-12-31T03:07:52.530Z,4.67
2017-12-31T03:10:21.658Z,2.80
2017-12-31T03:12:49.870Z,2.53
2017-12-31T03:15:18.261Z,4.73
2017-12-31T03:17:47.401Z,1.57
2017-12-31T03:20:16.373Z,4.63
2017-12-31T03:22:44.716Z,1.87
2017-12-31T03:25:13.332Z,4.33
2017-12-31T03:27:42.452Z,8.13
2017-12-31T03:30:10.537Z,3.07
2017-12-31T03:32:39.184Z,5.40
2017-12-31T03:35:08.162Z,2.57
2017-12-31T03:37:37.141Z,2.77
2017-12-31T03:40:06.757Z,3.30
2017-12-31T03:42:35.418Z,1.33
2017-12-31T03:45:05.100Z,3.20
2017-12-31T03:47:33.402Z,1.70
2017-12-31T03:50:02.328Z,2.60
2017-12-31T03:52:31.313Z,0.87
2017-12-31T03:55:00.047Z,4.93
2017-12-31T03:57:29.291Z,8.83
2017-12-31T03:59:58.991Z,1.33
2017-12-31T04:02:27.449Z,6.07
2017-12-31T04:04:56.011Z,3.47
2017-12-31T04:07:25.670Z,5.13
2017-12-31T04:09:54.339Z,1.20
2017-12-31T04:12:23.030Z,1.50
2017-12-31T04:14:52.009Z,1.60
2017-12-31T04:17:21.326Z,1.33
2017-12-31T04:19:50.602Z,1.97
2017-12-31T04:22:19.546Z,4.83
2017-12-31T04:24:48.566Z,5.23
2017-12-31T04:27:18.374Z,1.73
2017-12-31T04:29:46.580Z,1.23
2017-12-31T04:32:16.176Z,1.47
2017-12-31T04:34:45.789Z,0.93
2017-12-31T04:37:14.431Z,1.80
2017-12-31T04:39:43.367Z,3.00
2017-12-31T04:42:11.854Z,1.20
2017-12-31T04:44:40.099Z,5.80
2017-12-31T04:47:09.419Z,3.00
2017-12-31T04:49:38.451Z,9.17
2017-12-31T04:52:06.968Z,2.20
2017-12-31T04:54:36.193Z,4.23
2017-12-31T04:57:04.568Z,6.20
2017-12-31T04:59:34.149Z,3.60
2017-12-31T05:02:02.944Z,1.60
2017-12-31T05:04:30.979Z,6.00
2017-12-31T05:06:59.161Z,2.83
2017-12-31T05:09:27.851Z,5.20
2017-12-31T05:11:57.006Z,2.03
2017-12-31T05:14:25.658Z,1.90
2017-12-31T05:16:53.911Z,3.87
2017-12-31T05:19:23.403Z,1.93
2017-12-31T05:21:51.488Z,3.93
2017-12-31T05:24:21.005Z,2.27
2017-12-31T05:26:50.205Z,2.07
2017-12-31T05:29:18.445Z,2.73
2017-12-31T05:31:47.347Z,4.00
2017-12-31T05:34:15.743Z,6.27
2017-12-31T05:36:44.431Z,1.43
2017-12-31T05:39:12.614Z,5.40
2017-12-31T05:41:40.745Z,1.67
2017-12-31T05:44:09.438Z,2.30
2017-12-31T05:46:39.429Z,4.00
2017-12-31T05:49:08.330Z,3.27
2017-12-31T05:51:38.683Z,2.97
2017-12-31T05:54:07.606Z,2.57
2017-12-31T05:56:36.363Z,4.03
2017-12-31T05:59:05.266Z,4.17
2017-12-31T06:01:34.213Z,4.20
2017-12-31T06:04:03.226Z,2.50
2017-12-31T06:06:32.521Z,3.73
2017-12-31T06:09:02.204Z,4.40
2017-12-31T06:11:31.364Z,5.30
2017-12-31T06:13:59.552Z,9.30
2017-12-31T06:16:27.984Z,5.80
2017-12-31T06:18:56.851Z,1.93
2017-12-31T06:21:26.072Z,3.13
2017-12-31T06:23:54.222Z,0.90
2017-12-31T06:26:22.894Z,2.20
2017-12-31T06:28:51.115Z,1.30
2017-12-31T06:31:20.339Z,2.87
2017-12-31T06:33:49.364Z,1.70
2017-12-31T06:36:18.028Z,1.57
2017-12-31T06:38:46.954Z,3.20
2017-12-31T06:41:15.679Z,4.97
2017-12-31T06:43:44.340Z,1.93
2017-12-31T06:46:12.998Z,6.00
2017-12-31T06:48:41.393Z,2.47
2017-12-31T06:51:10.623Z,2.60
2017-12-31T06:53:39.123Z,2.30
2017-12-31T06:56:08.099Z,1.93
2017-12-31T06:58:37.046Z,1.70
2017-12-31T07:01:05.552Z,8.20
2017-12-31T07:03:33.938Z,3.80
2017-12-31T07:06:02.192Z,8.63
2017-12-31T07:08:31.220Z,7.40
2017-12-31T07:11:00.289Z,10.23
2017-12-31T07:13:28.884Z,2.70
2017-12-31T07:15:57.536Z,3.40
2017-12-31T07:18:26.505Z,1.73
2017-12-31T07:20:54.687Z,3.40
2017-12-31T07:23:23.060Z,5.90
2017-12-31T07:25:52.356Z,2.53
2017-12-31T07:28:21.189Z,3.00
2017-12-31T07:30:50.131Z,3.37
2017-12-31T07:33:18.967Z,1.77
2017-12-31T07:35:47.594Z,2.13
2017-12-31T07:38:15.919Z,2.07
2017-12-31T07:40:44.062Z,2.63
2017-12-31T07:43:13.650Z,3.03
2017-12-31T07:45:42.285Z,3.20
2017-12-31T07:48:10.577Z,2.80
2017-12-31T07:50:39.243Z,4.50
2017-12-31T07:53:08.470Z,3.63
2017-12-31T07:55:37.172Z,6.43
2017-12-31T07:58:05.425Z,3.10
2017-12-31T08:00:33.881Z,1.87
2017-12-31T08:03:02.503Z,1.43
2017-12-31T08:05:31.075Z,2.60
2017-12-31T08:07:59.303Z,4.60
2017-12-31T08:10:28.010Z,3.33
2017-12-31T08:12:56.327Z,3.37
2017-12-31T08:15:26.377Z,4.47
2017-12-31T08:17:54.520Z,1.90
2017-12-31T08:20:25.279Z,1.37
2017-12-31T08:22:53.723Z,1.40
2017-12-31T08:25:23.886Z,4.67
2017-12-31T08:27:52.541Z,2.23
2017-12-31T08:30:22.446Z,2.50
2017-12-31T08:32:51.648Z,2.43
2017-12-31T08:35:19.677Z,3.30
2017-12-31T08:37:47.878Z,5.40
2017-12-31T08:40:16.444Z,6.70
2017-12-31T08:42:44.673Z,2.53
2017-12-31T08:45:13.071Z,6.90
2017-12-31T08:47:41.578Z,5.03
2017-12-31T08:50:10.363Z,3.60
2017-12-31T08:52:38.928Z,4.23
2017-12-31T08:55:07.322Z,4.73
2017-12-31T08:57:36.373Z,1.37
2017-12-31T09:00:04.751Z,1.47
2017-12-31T09:02:33.485Z,2.03
2017-12-31T09:05:02.392Z,1.80
2017-12-31T09:07:31.661Z,1.43
2017-12-31T09:10:00.780Z,2.73
2017-12-31T09:12:29.325Z,4.27
2017-12-31T09:14:57.536Z,4.57
2017-12-31T09:17:26.573Z,1.90
2017-12-31T09:19:55.108Z,4.03
2017-12-31T09:22:24.543Z,2.23
2017-12-31T09:24:53.058Z,2.00
2017-12-31T09:27:21.263Z,3.90
2017-12-31T09:29:50.656Z,1.93
2017-12-31T09:32:18.942Z,11.63
2017-12-31T09:34:47.347Z,2.97
2017-12-31T09:37:15.698Z,1.53
2017-12-31T09:39:44.896Z,4.83
2017-12-31T09:42:14.101Z,2.20
2017-12-31T09:44:43.274Z,3.27
2017-12-31T09:47:12.554Z,2.40
2017-12-31T09:49:41.727Z,2.73
2017-12-31T09:52:11.180Z,2.80
2017-12-31T09:54:39.505Z,1.47
2017-12-31T09:57:08.502Z,2.90
2017-12-31T09:59:37.803Z,4.87
2017-12-31T10:02:07.065Z,3.33
2017-12-31T10:04:36.118Z,15.37
2017-12-31T10:07:04.407Z,2.13
2017-12-31T10:09:32.456Z,1.70
2017-12-31T10:12:02.182Z,1.50
2017-12-31T10:14:30.346Z,2.40
2017-12-31T10:16:59.180Z,4.60
2017-12-31T10:19:27.530Z,2.53
2017-12-31T10:21:57.000Z,2.63
2017-12-31T10:24:26.505Z,1.33
2017-12-31T10:26:55.860Z,2.13
2017-12-31T10:29:24.764Z,4.60
2017-12-31T10:31:54.121Z,2.20
2017-12-31T10:34:22.542Z,2.43
2017-12-31T10:36:51.169Z,4.53
2017-12-31T10:39:21.663Z,4.37
2017-12-31T10:41:50.650Z,1.67
2017-12-31T10:44:19.937Z,2.00
2017-12-31T10:46:48.919Z,2.97
2017-12-31T10:49:18.039Z,3.33
2017-12-31T10:51:46.231Z,2.33
2017-12-31T10:54:15.268Z,2.10
2017-12-31T10:56:43.941Z,1.90
2017-12-31T10:59:12.928Z,3.57
2017-12-31T11:01:41.963Z,2.93
2017-12-31T11:04:11.396Z,2.40
2017-12-31T11:06:40.268Z,1.57
2017-12-31T11:09:09.021Z,1.90
2017-12-31T11:11:37.881Z,4.00
2017-12-31T11:14:07.987Z,1.90
2017-12-31T11:16:38.291Z,1.20
2017-12-31T11:19:07.064Z,2.50
2017-12-31T11:21:35.543Z,1.40
2017-12-31T11:24:03.775Z,7.23
2017-12-31T11:26:32.239Z,3.10
2017-12-31T11:29:01.538Z,2.13
2017-12-31T11:31:30.698Z,1.20
2017-12-31T11:33:58.691Z,6.57
2017-12-31T11:36:28.196Z,5.70
2017-12-31T11:38:56.215Z,2.30
2017-12-31T11:41:24.971Z,1.23
2017-12-31T11:43:53.481Z,1.17
2017-12-31T11:46:22.297Z,3.30
2017-12-31T11:48:51.001Z,1.37
2017-12-31T11:51:19.548Z,2.10
2017-12-31T11:53:47.633Z,2.30
2017-12-31T11:56:16.370Z,7.30
2017-12-31T11:58:45.960Z,3.10
2017-12-31T12:01:15.550Z,2.60
2017-12-31T12:03:43.683Z,2.23
2017-12-31T12:06:12.003Z,2.73
2017-12-31T12:08:40.212Z,7.33
2017-12-31T12:11:08.438Z,2.83
2017-12-31T12:13:36.866Z,2.43
2017-12-31T12:16:05.490Z,1.90
2017-12-31T12:18:34.454Z,2.70
2017-12-31T12:21:02.922Z,3.73
2017-12-31T12:23:32.248Z,1.93
2017-12-31T12:26:01.443Z,3.30
2017-12-31T12:28:29.963Z,4.50
2017-12-31T12:30:58.203Z,1.90
2017-12-31T12:33:26.349Z,4.70
2017-12-31T12:35:55.783Z,3.20
2017-12-31T12:38:23.955Z,1.40
2017-12-31T12:40:52.763Z,1.97
2017-12-31T12:43:22.065Z,3.00
2017-12-31T12:45:50.541Z,2.50
2017-12-31T12:48:20.153Z,0.83
2017-12-31T12:50:48.945Z,1.67
2017-12-31T12:53:17.903Z,2.10
2017-12-31T12:55:46.600Z,1.10
2017-12-31T12:58:15.660Z,2.00
2017-12-31T13:00:44.287Z,3.20
2017-12-31T13:03:13.624Z,1.03
2017-12-31T13:05:42.394Z,2.53
2017-12-31T13:08:10.748Z,1.03
2017-12-31T13:10:38.954Z,1.67
2017-12-31T13:13:07.128Z,2.83
2017-12-31T13:15:36.165Z,2.90
2017-12-31T13:18:04.543Z,1.60
2017-12-31T13:20:33.318Z,1.00
2017-12-31T13:23:01.887Z,5.00
2017-12-31T13:25:31.003Z,2.80
2017-12-31T13:27:59.321Z,1.93
2017-12-31T13:30:27.773Z,3.03
2017-12-31T13:32:56.200Z,2.63
2017-12-31T13:35:24.370Z,1.97
2017-12-31T13:37:53.944Z,2.10
2017-12-31T13:40:23.929Z,2.93
2017-12-31T13:42:52.682Z,1.80
2017-12-31T13:45:22.087Z,3.67
2017-12-31T13:47:50.305Z,2.80
2017-12-31T13:50:18.252Z,1.70
2017-12-31T13:52:47.512Z,1.43
2017-12-31T13:55:16.287Z,1.40
2017-12-31T13:57:45.240Z,1.17
2017-12-31T14:00:13.895Z,3.00
2017-12-31T14:02:42.943Z,1.27
2017-12-31T14:05:11.602Z,1.27
2017-12-31T14:07:39.785Z,2.57
2017-12-31T14:10:09.167Z,0.73
2017-12-31T14:12:37.326Z,1.57
2017-12-31T14:15:05.511Z,1.97
2017-12-31T14:17:37.416Z,6.60
2017-12-31T14:20:06.612Z,3.10
2017-12-31T14:22:36.180Z,2.63
2017-12-31T14:25:05.065Z,4.13
2017-12-31T14:27:33.122Z,9.47
2017-12-31T14:30:01.824Z,1.50
2017-12-31T14:32:30.338Z,2.93
2017-12-31T14:34:58.564Z,2.00
2017-12-31T14:37:27.255Z,2.33
2017-12-31T14:39:56.914Z,3.20
2017-12-31T14:42:25.922Z,2.23
2017-12-31T14:44:54.325Z,2.70
2017-12-31T14:47:23.558Z,2.40
2017-12-31T14:49:52.635Z,4.10
2017-12-31T14:52:20.813Z,8.27
2017-12-31T14:54:49.566Z,3.27
2017-12-31T14:57:18.363Z,5.97
2017-12-31T14:59:47.261Z,5.03
2017-12-31T15:02:16.522Z,2.30
2017-12-31T15:04:44.661Z,2.37
2017-12-31T15:07:12.784Z,2.37
2017-12-31T15:09:42.027Z,1.37
2017-12-31T15:12:11.595Z,2.50
2017-12-31T15:14:39.665Z,2.10
2017-12-31T15:17:08.059Z,1.70
2017-12-31T15:19:38.337Z,1.73
2017-12-31T15:22:06.659Z,1.93
2017-12-31T15:24:35.677Z,2.10
2017-12-31T15:27:05.664Z,1.87
2017-12-31T15:29:34.252Z,7.00
2017-12-31T15:32:03.411Z,2.13
2017-12-31T15:34:31.702Z,2.00
2017-12-31T15:37:02.202Z,3.87
2017-12-31T15:39:31.343Z,3.60
2017-12-31T15:41:59.560Z,3.40
2017-12-31T15:44:27.556Z,2.80
2017-12-31T15:46:56.613Z,1.83
2017-12-31T15:49:26.313Z,2.30
2017-12-31T15:51:54.512Z,2.07
2017-12-31T15:54:23.535Z,4.70
2017-12-31T15:56:52.060Z,3.97
2017-12-31T15:59:20.772Z,2.00
2017-12-31T16:01:49.339Z,3.70
2017-12-31T16:04:19.621Z,2.93
2017-12-31T16:06:48.452Z,2.60
2017-12-31T16:09:18.132Z,3.10
2017-12-31T16:11:46.444Z,1.50
2017-12-31T16:14:15.281Z,2.37
2017-12-31T16:16:44.257Z,1.93
2017-12-31T16:19:13.733Z,2.13
2017-12-31T16:21:42.592Z,2.20
2017-12-31T16:24:11.550Z,3.37
2017-12-31T16:26:39.670Z,3.23
2017-12-31T16:29:08.199Z,8.90
2017-12-31T16:31:37.860Z,4.50
2017-12-31T16:34:07.401Z,2.53
2017-12-31T16:36:37.064Z,3.97
2017-12-31T16:39:05.566Z,4.63
2017-12-31T16:41:34.081Z,3.60
2017-12-31T16:44:03.426Z,3.37
2017-12-31T16:46:31.828Z,2.23
2017-12-31T16:49:01.395Z,6.50
2017-12-31T16:51:30.075Z,4.13
2017-12-31T16:53:59.917Z,3.37
2017-12-31T16:56:28.376Z,10.13
2017-12-31T16:58:57.800Z,8.00
2017-12-31T17:01:26.280Z,11.17
2017-12-31T17:03:55.680Z,6.50
2017-12-31T17:06:24.918Z,4.97
2017-12-31T17:08:54.506Z,4.33
2017-12-31T17:11:23.349Z,7.20
2017-12-31T17:13:52.264Z,7.57
2017-12-31T17:16:21.013Z,6.97
2017-12-31T17:18:50.261Z,8.53
2017-12-31T17:21:19.165Z,7.03
2017-12-31T17:23:48.359Z,10.73
2017-12-31T17:26:16.932Z,9.00
2017-12-31T17:28:46.280Z,13.50
2017-12-31T17:31:15.536Z,6.27
2017-12-31T17:33:44.844Z,11.00
2017-12-31T17:36:13.733Z,9.87
2017-12-31T17:38:42.760Z,20.20
2017-12-31T17:41:12.524Z,17.40
2017-12-31T17:43:40.982Z,15.13
2017-12-31T17:46:09.634Z,13.63
2017-12-31T17:48:39.380Z,13.53
2017-12-31T17:51:07.973Z,15.07
2017-12-31T17:53:36.534Z,16.50
2017-12-31T17:56:05.000Z,13.97
2017-12-31T17:58:34.077Z,15.87
2017-12-31T18:01:03.398Z,19.57
2017-12-31T18:03:32.240Z,50.47
2017-12-31T18:06:01.972Z,19.27
2017-12-31T18:08:30.993Z,28.73
2017-12-31T18:11:01.615Z,27.33
2017-12-31T18:13:30.109Z,24.73
2017-12-31T18:15:59.671Z,23.80
2017-12-31T18:18:28.718Z,27.53
2017-12-31T18:20:57.167Z,33.67
2017-12-31T18:23:27.082Z,36.90
2017-12-31T18:25:55.834Z,45.30
2017-12-31T18:28:25.599Z,37.67
2017-12-31T18:30:54.682Z,69.40
2017-12-31T18:33:25.101Z,79.30
2017-12-31T18:35:53.284Z,83.83
2017-12-31T18:38:21.959Z,79.40
2017-12-31T18:40:50.891Z,74.20
2017-12-31T18:43:20.226Z,71.67
2017-12-31T18:45:49.015Z,71.07
2017-12-31T18:48:18.229Z,71.40
2017-12-31T18:50:46.849Z,76.50
2017-12-31T18:53:15.873Z,78.30
2017-12-31T18:55:44.910Z,66.00
2017-12-31T18:58:13.011Z,53.20
2017-12-31T19:00:42.307Z,46.03
2017-12-31T19:03:10.912Z,48.53
2017-12-31T19:05:39.800Z,54.10
2017-12-31T19:08:08.326Z,63.87
2017-12-31T19:10:36.915Z,95.80
2017-12-31T19:13:05.703Z,89.23
2017-12-31T19:15:34.043Z,91.03
2017-12-31T19:18:03.046Z,50.10
2017-12-31T19:20:32.017Z,32.67
2017-12-31T19:23:01.260Z,37.03
2017-12-31T19:25:29.976Z,47.73
2017-12-31T19:27:59.343Z,53.40
2017-12-31T19:30:28.643Z,63.93
2017-12-31T19:32:57.341Z,41.70
2017-12-31T19:50:49.142Z,42.63
2017-12-31T19:53:18.994Z,44.70
2017-12-31T19:55:47.604Z,45.20
2017-12-31T19:58:15.963Z,54.92
2017-12-31T20:00:45.054Z,60.30
2017-12-31T20:03:13.748Z,62.17
2017-12-31T20:05:42.403Z,152.45
2017-12-31T20:08:11.752Z,71.33
2017-12-31T20:10:40.392Z,53.75
2017-12-31T20:13:09.075Z,51.63
2017-12-31T20:15:37.740Z,64.15
2017-12-31T20:18:07.104Z,60.70
2017-12-31T20:20:36.027Z,84.93
2017-12-31T20:23:06.553Z,70.68
2017-12-31T20:25:37.475Z,65.33
2017-12-31T20:28:07.517Z,71.60
2017-12-31T20:30:37.016Z,77.10
2017-12-31T20:33:06.283Z,66.78
2017-12-31T20:35:35.242Z,90.90
2017-12-31T20:38:05.514Z,125.00
2017-12-31T20:40:34.497Z,136.82
2017-12-31T20:43:03.215Z,171.32
2017-12-31T20:45:31.961Z,117.13
2017-12-31T20:48:00.343Z,137.57
2017-12-31T20:50:28.813Z,140.75
2017-12-31T20:52:57.601Z,105.50
2017-12-31T20:55:26.605Z,120.87
2017-12-31T20:57:55.986Z,108.45
2017-12-31T21:00:24.673Z,101.60
2017-12-31T21:02:53.686Z,181.05
2017-12-31T21:05:23.432Z,90.40
2017-12-31T21:07:53.909Z,103.70
2017-12-31T21:10:23.625Z,106.75
2017-12-31T21:12:52.604Z,129.02
2017-12-31T21:15:22.242Z,106.68
2017-12-31T21:17:51.237Z,99.30
2017-12-31T21:20:20.090Z,85.75
2017-12-31T21:22:49.172Z,100.65
2017-12-31T21:25:17.950Z,100.90
2017-12-31T21:27:46.183Z,98.47
2017-12-31T21:30:15.754Z,87.97
2017-12-31T21:32:45.385Z,98.05
2017-12-31T21:35:14.442Z,99.82
2017-12-31T21:37:43.332Z,82.68
2017-12-31T21:40:11.809Z,65.37
2017-12-31T21:42:41.053Z,97.03
2017-12-31T21:45:10.070Z,251.65
2017-12-31T21:47:39.726Z,55.58
2017-12-31T21:50:08.657Z,66.00
2017-12-31T21:52:37.596Z,62.05
2017-12-31T21:55:06.198Z,223.18
2017-12-31T21:57:34.859Z,87.85
2017-12-31T22:00:03.771Z,70.93
2017-12-31T22:02:32.859Z,113.90
2017-12-31T22:05:01.064Z,263.00
2017-12-31T22:07:29.596Z,106.60
2017-12-31T22:09:58.116Z,106.15
2017-12-31T22:12:26.800Z,88.93
2017-12-31T22:14:55.242Z,84.57
2017-12-31T22:17:23.834Z,362.25
2017-12-31T22:19:52.504Z,173.27
2017-12-31T22:22:22.607Z,92.93
2017-12-31T22:24:50.883Z,107.18
2017-12-31T22:27:19.602Z,76.47
2017-12-31T22:29:48.812Z,95.18
2017-12-31T22:32:16.888Z,124.25
2017-12-31T22:34:46.567Z,155.57
2017-12-31T22:37:15.203Z,126.55
2017-12-31T22:39:44.255Z,111.60
2017-12-31T22:42:13.707Z,106.12
2017-12-31T22:44:42.137Z,104.90
2017-12-31T22:47:10.858Z,113.25
2017-12-31T22:49:39.646Z,141.90
2017-12-31T22:52:09.127Z,146.07
2017-12-31T22:54:38.287Z,183.02
2017-12-31T22:57:07.064Z,202.52
2017-12-31T22:59:35.561Z,175.25
2017-12-31T23:02:04.052Z,550.87
2017-12-31T23:04:32.924Z,619.85
2017-12-31T23:07:01.341Z,745.25
2017-12-31T23:09:29.852Z,1505.10
2017-12-31T23:11:58.556Z,1032.70
2017-12-31T23:14:27.742Z,871.70
2017-12-31T23:16:56.889Z,818.28
2017-12-31T23:19:26.295Z,763.78
2017-12-31T23:21:55.764Z,773.05
2017-12-31T23:24:24.232Z,845.28
2017-12-31T23:26:53.841Z,791.35
2017-12-31T23:29:22.830Z,694.85
2017-12-31T23:31:52.468Z,671.37
2017-12-31T23:34:21.395Z,677.50
2017-12-31T23:36:49.888Z,674.83
2017-12-31T23:39:19.761Z,727.00
2017-12-31T23:41:48.402Z,720.95
2017-12-31T23:44:17.951Z,644.80
2017-12-31T23:46:46.748Z,791.42
2017-12-31T23:49:15.483Z,657.25
2017-12-31T23:51:44.292Z,802.53
2017-12-31T23:54:13.158Z,623.25
2017-12-31T23:56:42.311Z,671.63
2017-12-31T23:59:10.979Z,595.60
